sensor_id;sensor_type;location;lat;lon;timestamp;temperature;humidity
59973;DHT22;55298;-36.624;-64.282;2023-11-19T00:00:10;20.30;29.80
59973;DHT22;55298;-36.624;-64.282;2023-11-19T00:02:40;20.20;29.30
59973;DHT22;55298;-36.624;-64.282;2023-11-19T00:05:09;20.20;29.40
59973;DHT22;55298;-36.624;-64.282;2023-11-19T00:07:38;20.10;29.70
59973;DHT22;55298;-36.624;-64.282;2023-11-19T00:10:11;20.00;30.00
59973;DHT22;55298;-36.624;-64.282;2023-11-19T00:12:42;19.80;30.00
59973;DHT22;55298;-36.624;-64.282;2023-11-19T00:15:11;19.70;30.20
59973;DHT22;55298;-36.624;-64.282;2023-11-19T00:17:39;19.70;30.40
59973;DHT22;55298;-36.624;-64.282;2023-11-19T00:20:09;19.50;30.40
59973;DHT22;55298;-36.624;-64.282;2023-11-19T00:22:37;19.50;30.50
59973;DHT22;55298;-36.624;-64.282;2023-11-19T00:25:05;19.40;30.50
59973;DHT22;55298;-36.624;-64.282;2023-11-19T00:27:33;19.30;30.90
59973;DHT22;55298;-36.624;-64.282;2023-11-19T00:30:01;19.30;31.00
59973;DHT22;55298;-36.624;-64.282;2023-11-19T00:32:32;19.20;31.10
59973;DHT22;55298;-36.624;-64.282;2023-11-19T00:35:01;19.20;31.30
59973;DHT22;55298;-36.624;-64.282;2023-11-19T00:37:29;19.00;31.20
59973;DHT22;55298;-36.624;-64.282;2023-11-19T00:39:57;19.00;31.30
59973;DHT22;55298;-36.624;-64.282;2023-11-19T00:42:25;18.90;31.70
59973;DHT22;55298;-36.624;-64.282;2023-11-19T00:44:53;18.80;32.00
59973;DHT22;55298;-36.624;-64.282;2023-11-19T00:47:22;18.80;31.90
59973;DHT22;55298;-36.624;-64.282;2023-11-19T00:49:49;18.70;32.20
59973;DHT22;55298;-36.624;-64.282;2023-11-19T00:52:18;18.70;32.50
59973;DHT22;55298;-36.624;-64.282;2023-11-19T00:54:46;18.60;32.40
59973;DHT22;55298;-36.624;-64.282;2023-11-19T00:57:14;18.60;32.40
59973;DHT22;55298;-36.624;-64.282;2023-11-19T00:59:44;18.60;32.50
59973;DHT22;55298;-36.624;-64.282;2023-11-19T01:02:14;18.70;32.80
59973;DHT22;55298;-36.624;-64.282;2023-11-19T01:04:42;18.50;33.00
59973;DHT22;55298;-36.624;-64.282;2023-11-19T01:07:09;18.30;33.30
59973;DHT22;55298;-36.624;-64.282;2023-11-19T01:09:41;18.30;33.40
59973;DHT22;55298;-36.624;-64.282;2023-11-19T01:12:08;18.20;33.60
59973;DHT22;55298;-36.624;-64.282;2023-11-19T01:14:38;18.20;33.50
59973;DHT22;55298;-36.624;-64.282;2023-11-19T01:17:06;18.00;34.10
59973;DHT22;55298;-36.624;-64.282;2023-11-19T01:19:33;17.90;34.10
59973;DHT22;55298;-36.624;-64.282;2023-11-19T01:22:02;17.90;34.10
59973;DHT22;55298;-36.624;-64.282;2023-11-19T01:24:30;17.90;34.50
59973;DHT22;55298;-36.624;-64.282;2023-11-19T01:26:58;17.70;34.60
59973;DHT22;55298;-36.624;-64.282;2023-11-19T01:29:26;17.70;34.60
59973;DHT22;55298;-36.624;-64.282;2023-11-19T01:31:54;17.70;34.70
59973;DHT22;55298;-36.624;-64.282;2023-11-19T01:34:21;17.60;34.10
59973;DHT22;55298;-36.624;-64.282;2023-11-19T01:36:49;17.70;34.90
59973;DHT22;55298;-36.624;-64.282;2023-11-19T01:39:17;17.50;34.80
59973;DHT22;55298;-36.624;-64.282;2023-11-19T01:41:48;17.50;34.90
59973;DHT22;55298;-36.624;-64.282;2023-11-19T01:44:16;17.50;34.30
59973;DHT22;55298;-36.624;-64.282;2023-11-19T01:46:45;17.50;34.70
59973;DHT22;55298;-36.624;-64.282;2023-11-19T01:49:16;17.50;34.60
59973;DHT22;55298;-36.624;-64.282;2023-11-19T01:51:45;17.40;34.80
59973;DHT22;55298;-36.624;-64.282;2023-11-19T01:54:13;17.30;34.90
59973;DHT22;55298;-36.624;-64.282;2023-11-19T01:56:42;17.30;34.70
59973;DHT22;55298;-36.624;-64.282;2023-11-19T01:59:12;17.30;34.70
59973;DHT22;55298;-36.624;-64.282;2023-11-19T02:01:41;17.20;35.00
59973;DHT22;55298;-36.624;-64.282;2023-11-19T02:04:09;17.20;35.10
59973;DHT22;55298;-36.624;-64.282;2023-11-19T02:06:40;17.20;35.30
59973;DHT22;55298;-36.624;-64.282;2023-11-19T02:09:08;17.10;35.10
59973;DHT22;55298;-36.624;-64.282;2023-11-19T02:11:37;17.10;35.70
59973;DHT22;55298;-36.624;-64.282;2023-11-19T02:14:07;17.00;35.80
59973;DHT22;55298;-36.624;-64.282;2023-11-19T02:16:34;16.90;35.50
59973;DHT22;55298;-36.624;-64.282;2023-11-19T02:19:03;17.00;35.60
59973;DHT22;55298;-36.624;-64.282;2023-11-19T02:21:34;16.90;35.70
59973;DHT22;55298;-36.624;-64.282;2023-11-19T02:24:05;16.90;35.70
59973;DHT22;55298;-36.624;-64.282;2023-11-19T02:26:45;16.80;35.60
59973;DHT22;55298;-36.624;-64.282;2023-11-19T02:29:14;16.70;35.80
59973;DHT22;55298;-36.624;-64.282;2023-11-19T02:31:47;16.70;35.40
59973;DHT22;55298;-36.624;-64.282;2023-11-19T02:34:14;16.70;35.30
59973;DHT22;55298;-36.624;-64.282;2023-11-19T02:36:43;16.70;35.80
59973;DHT22;55298;-36.624;-64.282;2023-11-19T02:39:10;16.60;35.70
59973;DHT22;55298;-36.624;-64.282;2023-11-19T02:41:39;16.60;35.70
59973;DHT22;55298;-36.624;-64.282;2023-11-19T02:44:07;16.50;35.80
59973;DHT22;55298;-36.624;-64.282;2023-11-19T02:46:35;16.50;35.70
59973;DHT22;55298;-36.624;-64.282;2023-11-19T02:49:03;16.50;35.80
59973;DHT22;55298;-36.624;-64.282;2023-11-19T02:51:30;16.50;35.80
59973;DHT22;55298;-36.624;-64.282;2023-11-19T02:53:59;16.40;35.70
59973;DHT22;55298;-36.624;-64.282;2023-11-19T02:56:26;16.40;35.90
59973;DHT22;55298;-36.624;-64.282;2023-11-19T02:58:56;16.30;36.20
59973;DHT22;55298;-36.624;-64.282;2023-11-19T03:01:25;16.30;36.30
59973;DHT22;55298;-36.624;-64.282;2023-11-19T03:03:57;16.20;35.90
59973;DHT22;55298;-36.624;-64.282;2023-11-19T03:06:25;16.20;36.40
59973;DHT22;55298;-36.624;-64.282;2023-11-19T03:08:54;16.10;36.30
59973;DHT22;55298;-36.624;-64.282;2023-11-19T03:11:22;16.20;36.30
59973;DHT22;55298;-36.624;-64.282;2023-11-19T03:13:51;16.00;36.70
59973;DHT22;55298;-36.624;-64.282;2023-11-19T03:16:19;16.00;37.00
59973;DHT22;55298;-36.624;-64.282;2023-11-19T03:18:47;15.90;37.10
59973;DHT22;55298;-36.624;-64.282;2023-11-19T03:21:14;15.90;36.50
59973;DHT22;55298;-36.624;-64.282;2023-11-19T03:23:42;15.90;36.30
59973;DHT22;55298;-36.624;-64.282;2023-11-19T03:26:11;15.90;36.40
59973;DHT22;55298;-36.624;-64.282;2023-11-19T03:28:40;15.80;36.90
59973;DHT22;55298;-36.624;-64.282;2023-11-19T03:31:08;15.80;37.00
59973;DHT22;55298;-36.624;-64.282;2023-11-19T03:33:35;15.80;36.50
59973;DHT22;55298;-36.624;-64.282;2023-11-19T03:36:04;15.70;36.60
59973;DHT22;55298;-36.624;-64.282;2023-11-19T03:38:32;15.70;36.70
59973;DHT22;55298;-36.624;-64.282;2023-11-19T03:41:00;15.70;37.00
59973;DHT22;55298;-36.624;-64.282;2023-11-19T03:43:27;15.60;37.60
59973;DHT22;55298;-36.624;-64.282;2023-11-19T03:45:55;15.60;37.50
59973;DHT22;55298;-36.624;-64.282;2023-11-19T03:48:23;15.60;37.10
59973;DHT22;55298;-36.624;-64.282;2023-11-19T03:50:51;15.50;37.70
59973;DHT22;55298;-36.624;-64.282;2023-11-19T03:53:18;15.60;38.10
59973;DHT22;55298;-36.624;-64.282;2023-11-19T03:55:46;15.50;37.90
59973;DHT22;55298;-36.624;-64.282;2023-11-19T03:58:14;15.50;37.10
59973;DHT22;55298;-36.624;-64.282;2023-11-19T04:00:43;15.50;36.90
59973;DHT22;55298;-36.624;-64.282;2023-11-19T04:03:11;15.50;37.30
59973;DHT22;55298;-36.624;-64.282;2023-11-19T04:05:38;15.50;37.40
59973;DHT22;55298;-36.624;-64.282;2023-11-19T04:08:06;15.50;37.30
59973;DHT22;55298;-36.624;-64.282;2023-11-19T04:10:34;15.40;37.00
59973;DHT22;55298;-36.624;-64.282;2023-11-19T04:13:01;15.40;37.40
59973;DHT22;55298;-36.624;-64.282;2023-11-19T04:15:29;15.30;37.40
59973;DHT22;55298;-36.624;-64.282;2023-11-19T04:17:57;15.30;37.30
59973;DHT22;55298;-36.624;-64.282;2023-11-19T04:20:24;15.40;37.30
59973;DHT22;55298;-36.624;-64.282;2023-11-19T04:22:52;15.30;37.00
59973;DHT22;55298;-36.624;-64.282;2023-11-19T04:25:20;15.20;37.40
59973;DHT22;55298;-36.624;-64.282;2023-11-19T04:27:49;15.20;37.30
59973;DHT22;55298;-36.624;-64.282;2023-11-19T04:30:17;15.10;38.40
59973;DHT22;55298;-36.624;-64.282;2023-11-19T04:32:45;15.10;38.90
59973;DHT22;55298;-36.624;-64.282;2023-11-19T04:35:12;15.10;38.90
59973;DHT22;55298;-36.624;-64.282;2023-11-19T04:37:41;15.10;39.10
59973;DHT22;55298;-36.624;-64.282;2023-11-19T04:40:09;15.00;39.30
59973;DHT22;55298;-36.624;-64.282;2023-11-19T04:42:38;15.10;39.10
59973;DHT22;55298;-36.624;-64.282;2023-11-19T04:45:07;15.10;39.90
59973;DHT22;55298;-36.624;-64.282;2023-11-19T04:47:38;15.00;39.80
59973;DHT22;55298;-36.624;-64.282;2023-11-19T04:50:06;15.00;39.80
59973;DHT22;55298;-36.624;-64.282;2023-11-19T04:52:33;15.00;39.60
59973;DHT22;55298;-36.624;-64.282;2023-11-19T04:55:01;14.90;40.10
59973;DHT22;55298;-36.624;-64.282;2023-11-19T04:57:29;14.90;39.60
59973;DHT22;55298;-36.624;-64.282;2023-11-19T05:00:00;15.00;39.30
59973;DHT22;55298;-36.624;-64.282;2023-11-19T05:02:28;15.00;38.90
59973;DHT22;55298;-36.624;-64.282;2023-11-19T05:04:55;14.90;38.50
59973;DHT22;55298;-36.624;-64.282;2023-11-19T05:07:23;14.90;38.10
59973;DHT22;55298;-36.624;-64.282;2023-11-19T05:09:51;14.90;38.30
59973;DHT22;55298;-36.624;-64.282;2023-11-19T05:12:18;14.90;38.40
59973;DHT22;55298;-36.624;-64.282;2023-11-19T05:14:46;14.90;38.40
59973;DHT22;55298;-36.624;-64.282;2023-11-19T05:17:18;14.80;38.30
59973;DHT22;55298;-36.624;-64.282;2023-11-19T05:19:46;14.80;38.50
59973;DHT22;55298;-36.624;-64.282;2023-11-19T05:22:15;14.80;38.40
59973;DHT22;55298;-36.624;-64.282;2023-11-19T05:24:42;14.80;38.40
59973;DHT22;55298;-36.624;-64.282;2023-11-19T05:27:10;14.70;38.80
59973;DHT22;55298;-36.624;-64.282;2023-11-19T05:29:39;14.80;38.50
59973;DHT22;55298;-36.624;-64.282;2023-11-19T05:32:08;14.70;38.70
59973;DHT22;55298;-36.624;-64.282;2023-11-19T05:34:36;14.70;39.00
59973;DHT22;55298;-36.624;-64.282;2023-11-19T05:37:04;14.70;39.10
59973;DHT22;55298;-36.624;-64.282;2023-11-19T05:39:32;14.70;38.90
59973;DHT22;55298;-36.624;-64.282;2023-11-19T05:42:00;14.60;39.10
59973;DHT22;55298;-36.624;-64.282;2023-11-19T05:44:27;14.60;39.20
59973;DHT22;55298;-36.624;-64.282;2023-11-19T05:46:56;14.60;39.40
59973;DHT22;55298;-36.624;-64.282;2023-11-19T05:49:24;14.50;39.00
59973;DHT22;55298;-36.624;-64.282;2023-11-19T05:51:52;14.50;40.30
59973;DHT22;55298;-36.624;-64.282;2023-11-19T05:54:22;14.50;41.00
59973;DHT22;55298;-36.624;-64.282;2023-11-19T05:56:50;14.40;41.30
59973;DHT22;55298;-36.624;-64.282;2023-11-19T05:59:21;14.40;40.20
59973;DHT22;55298;-36.624;-64.282;2023-11-19T06:01:49;14.40;41.50
59973;DHT22;55298;-36.624;-64.282;2023-11-19T06:04:17;14.40;41.70
59973;DHT22;55298;-36.624;-64.282;2023-11-19T06:06:45;14.40;42.30
59973;DHT22;55298;-36.624;-64.282;2023-11-19T06:09:12;14.30;42.30
59973;DHT22;55298;-36.624;-64.282;2023-11-19T06:11:40;14.30;41.10
59973;DHT22;55298;-36.624;-64.282;2023-11-19T06:14:08;14.30;42.20
59973;DHT22;55298;-36.624;-64.282;2023-11-19T06:16:35;14.40;42.20
59973;DHT22;55298;-36.624;-64.282;2023-11-19T06:19:03;14.40;40.70
59973;DHT22;55298;-36.624;-64.282;2023-11-19T06:21:31;14.40;40.30
59973;DHT22;55298;-36.624;-64.282;2023-11-19T06:23:59;14.30;40.00
59973;DHT22;55298;-36.624;-64.282;2023-11-19T06:26:29;14.40;40.80
59973;DHT22;55298;-36.624;-64.282;2023-11-19T06:28:57;14.40;40.90
59973;DHT22;55298;-36.624;-64.282;2023-11-19T06:31:25;14.40;41.50
59973;DHT22;55298;-36.624;-64.282;2023-11-19T06:33:52;14.40;41.20
59973;DHT22;55298;-36.624;-64.282;2023-11-19T06:36:20;14.30;40.40
59973;DHT22;55298;-36.624;-64.282;2023-11-19T06:38:48;14.30;40.10
59973;DHT22;55298;-36.624;-64.282;2023-11-19T06:41:16;14.40;40.30
59973;DHT22;55298;-36.624;-64.282;2023-11-19T06:43:43;14.40;39.80
59973;DHT22;55298;-36.624;-64.282;2023-11-19T06:46:18;14.40;39.70
59973;DHT22;55298;-36.624;-64.282;2023-11-19T06:48:46;14.40;39.10
59973;DHT22;55298;-36.624;-64.282;2023-11-19T06:51:14;14.50;38.90
59973;DHT22;55298;-36.624;-64.282;2023-11-19T06:53:43;14.40;39.00
59973;DHT22;55298;-36.624;-64.282;2023-11-19T06:56:21;14.50;39.20
59973;DHT22;55298;-36.624;-64.282;2023-11-19T06:58:50;14.50;39.50
59973;DHT22;55298;-36.624;-64.282;2023-11-19T07:01:18;14.50;39.60
59973;DHT22;55298;-36.624;-64.282;2023-11-19T07:03:47;14.40;39.70
59973;DHT22;55298;-36.624;-64.282;2023-11-19T07:06:15;14.40;39.80
59973;DHT22;55298;-36.624;-64.282;2023-11-19T07:08:43;14.40;39.40
59973;DHT22;55298;-36.624;-64.282;2023-11-19T07:11:12;14.40;40.90
59973;DHT22;55298;-36.624;-64.282;2023-11-19T07:13:41;14.40;40.10
59973;DHT22;55298;-36.624;-64.282;2023-11-19T07:16:09;14.40;40.20
59973;DHT22;55298;-36.624;-64.282;2023-11-19T07:18:37;14.40;40.40
59973;DHT22;55298;-36.624;-64.282;2023-11-19T07:21:05;14.40;40.50
59973;DHT22;55298;-36.624;-64.282;2023-11-19T07:23:34;14.30;41.00
59973;DHT22;55298;-36.624;-64.282;2023-11-19T07:26:04;14.30;41.50
59973;DHT22;55298;-36.624;-64.282;2023-11-19T07:28:32;14.30;40.90
59973;DHT22;55298;-36.624;-64.282;2023-11-19T07:30:59;14.30;40.50
59973;DHT22;55298;-36.624;-64.282;2023-11-19T07:33:27;14.20;39.90
59973;DHT22;55298;-36.624;-64.282;2023-11-19T07:35:56;14.20;40.40
59973;DHT22;55298;-36.624;-64.282;2023-11-19T07:38:23;14.30;40.10
59973;DHT22;55298;-36.624;-64.282;2023-11-19T07:40:51;14.20;40.60
59973;DHT22;55298;-36.624;-64.282;2023-11-19T07:43:19;14.10;41.10
59973;DHT22;55298;-36.624;-64.282;2023-11-19T07:45:46;14.10;40.90
59973;DHT22;55298;-36.624;-64.282;2023-11-19T07:48:14;14.00;41.50
59973;DHT22;55298;-36.624;-64.282;2023-11-19T07:50:42;14.00;42.00
59973;DHT22;55298;-36.624;-64.282;2023-11-19T07:53:10;13.90;42.00
59973;DHT22;55298;-36.624;-64.282;2023-11-19T07:55:40;13.90;42.00
59973;DHT22;55298;-36.624;-64.282;2023-11-19T07:58:07;13.90;42.60
59973;DHT22;55298;-36.624;-64.282;2023-11-19T08:00:35;13.90;41.50
59973;DHT22;55298;-36.624;-64.282;2023-11-19T08:03:04;13.90;42.40
59973;DHT22;55298;-36.624;-64.282;2023-11-19T08:05:32;13.90;42.30
59973;DHT22;55298;-36.624;-64.282;2023-11-19T08:07:59;13.90;42.50
59973;DHT22;55298;-36.624;-64.282;2023-11-19T08:10:27;13.90;41.80
59973;DHT22;55298;-36.624;-64.282;2023-11-19T08:12:55;13.90;41.50
59973;DHT22;55298;-36.624;-64.282;2023-11-19T08:15:23;13.90;41.40
59973;DHT22;55298;-36.624;-64.282;2023-11-19T08:17:50;13.80;42.10
59973;DHT22;55298;-36.624;-64.282;2023-11-19T08:20:18;13.80;42.60
59973;DHT22;55298;-36.624;-64.282;2023-11-19T08:22:46;13.70;42.50
59973;DHT22;55298;-36.624;-64.282;2023-11-19T08:25:14;13.70;42.10
59973;DHT22;55298;-36.624;-64.282;2023-11-19T08:27:41;13.80;42.80
59973;DHT22;55298;-36.624;-64.282;2023-11-19T08:30:10;13.80;42.80
59973;DHT22;55298;-36.624;-64.282;2023-11-19T08:32:37;13.60;43.00
59973;DHT22;55298;-36.624;-64.282;2023-11-19T08:35:05;13.60;42.40
59973;DHT22;55298;-36.624;-64.282;2023-11-19T08:37:33;13.50;43.40
59973;DHT22;55298;-36.624;-64.282;2023-11-19T08:40:03;13.50;42.50
59973;DHT22;55298;-36.624;-64.282;2023-11-19T08:42:31;13.40;42.80
59973;DHT22;55298;-36.624;-64.282;2023-11-19T08:45:00;13.40;44.10
59973;DHT22;55298;-36.624;-64.282;2023-11-19T08:47:27;13.30;43.60
59973;DHT22;55298;-36.624;-64.282;2023-11-19T08:49:55;13.30;43.40
59973;DHT22;55298;-36.624;-64.282;2023-11-19T08:52:23;13.20;44.10
59973;DHT22;55298;-36.624;-64.282;2023-11-19T08:54:51;13.20;44.40
59973;DHT22;55298;-36.624;-64.282;2023-11-19T08:57:18;13.20;43.80
59973;DHT22;55298;-36.624;-64.282;2023-11-19T08:59:47;13.30;42.80
59973;DHT22;55298;-36.624;-64.282;2023-11-19T09:02:14;13.30;43.30
59973;DHT22;55298;-36.624;-64.282;2023-11-19T09:04:43;13.30;43.40
59973;DHT22;55298;-36.624;-64.282;2023-11-19T09:07:10;13.40;43.50
59973;DHT22;55298;-36.624;-64.282;2023-11-19T09:09:39;13.40;43.10
59973;DHT22;55298;-36.624;-64.282;2023-11-19T09:12:07;13.40;43.10
59973;DHT22;55298;-36.624;-64.282;2023-11-19T09:14:34;13.50;44.20
59973;DHT22;55298;-36.624;-64.282;2023-11-19T09:17:02;13.50;43.70
59973;DHT22;55298;-36.624;-64.282;2023-11-19T09:19:33;13.50;43.20
59973;DHT22;55298;-36.624;-64.282;2023-11-19T09:22:02;13.50;43.10
59973;DHT22;55298;-36.624;-64.282;2023-11-19T09:24:30;13.60;43.50
59973;DHT22;55298;-36.624;-64.282;2023-11-19T09:26:58;13.70;44.10
59973;DHT22;55298;-36.624;-64.282;2023-11-19T09:29:26;13.70;43.60
59973;DHT22;55298;-36.624;-64.282;2023-11-19T09:31:54;13.80;43.00
59973;DHT22;55298;-36.624;-64.282;2023-11-19T09:34:22;13.80;43.10
59973;DHT22;55298;-36.624;-64.282;2023-11-19T09:36:49;13.90;43.70
59973;DHT22;55298;-36.624;-64.282;2023-11-19T09:39:17;13.90;44.00
59973;DHT22;55298;-36.624;-64.282;2023-11-19T09:41:45;14.00;44.00
59973;DHT22;55298;-36.624;-64.282;2023-11-19T09:44:13;14.00;43.00
59973;DHT22;55298;-36.624;-64.282;2023-11-19T09:46:45;14.10;42.80
59973;DHT22;55298;-36.624;-64.282;2023-11-19T09:49:14;14.20;44.10
59973;DHT22;55298;-36.624;-64.282;2023-11-19T09:51:41;14.30;44.50
59973;DHT22;55298;-36.624;-64.282;2023-11-19T09:54:09;14.40;45.20
59973;DHT22;55298;-36.624;-64.282;2023-11-19T09:56:39;14.50;44.20
59973;DHT22;55298;-36.624;-64.282;2023-11-19T09:59:08;14.60;44.30
59973;DHT22;55298;-36.624;-64.282;2023-11-19T10:01:38;14.60;43.60
59973;DHT22;55298;-36.624;-64.282;2023-11-19T10:04:07;14.60;43.00
59973;DHT22;55298;-36.624;-64.282;2023-11-19T10:06:35;14.80;42.90
59973;DHT22;55298;-36.624;-64.282;2023-11-19T10:09:03;14.80;43.00
59973;DHT22;55298;-36.624;-64.282;2023-11-19T10:11:32;15.00;42.90
59973;DHT22;55298;-36.624;-64.282;2023-11-19T10:14:00;15.10;43.50
59973;DHT22;55298;-36.624;-64.282;2023-11-19T10:16:30;15.30;42.40
59973;DHT22;55298;-36.624;-64.282;2023-11-19T10:18:58;15.50;42.40
59973;DHT22;55298;-36.624;-64.282;2023-11-19T10:21:25;15.50;42.30
59973;DHT22;55298;-36.624;-64.282;2023-11-19T10:23:56;15.60;42.40
59973;DHT22;55298;-36.624;-64.282;2023-11-19T10:26:27;15.90;42.00
59973;DHT22;55298;-36.624;-64.282;2023-11-19T10:28:56;15.80;42.40
59973;DHT22;55298;-36.624;-64.282;2023-11-19T10:31:24;16.00;42.50
59973;DHT22;55298;-36.624;-64.282;2023-11-19T10:33:53;16.10;42.30
59973;DHT22;55298;-36.624;-64.282;2023-11-19T10:36:21;16.20;42.00
59973;DHT22;55298;-36.624;-64.282;2023-11-19T10:38:55;16.40;41.90
59973;DHT22;55298;-36.624;-64.282;2023-11-19T10:41:32;16.60;42.30
59973;DHT22;55298;-36.624;-64.282;2023-11-19T10:44:00;16.90;42.00
59973;DHT22;55298;-36.624;-64.282;2023-11-19T10:46:38;17.40;41.60
59973;DHT22;55298;-36.624;-64.282;2023-11-19T10:49:07;18.40;39.90
59973;DHT22;55298;-36.624;-64.282;2023-11-19T10:51:36;19.30;37.80
59973;DHT22;55298;-36.624;-64.282;2023-11-19T10:54:05;20.00;36.50
59973;DHT22;55298;-36.624;-64.282;2023-11-19T10:56:34;20.80;35.40
59973;DHT22;55298;-36.624;-64.282;2023-11-19T10:59:02;21.80;33.90
59973;DHT22;55298;-36.624;-64.282;2023-11-19T11:01:43;23.30;31.30
59973;DHT22;55298;-36.624;-64.282;2023-11-19T11:04:14;24.70;29.50
59973;DHT22;55298;-36.624;-64.282;2023-11-19T11:06:44;25.80;27.60
59973;DHT22;55298;-36.624;-64.282;2023-11-19T11:09:11;26.60;26.50
59973;DHT22;55298;-36.624;-64.282;2023-11-19T11:11:44;27.60;26.90
59973;DHT22;55298;-36.624;-64.282;2023-11-19T11:14:14;28.50;25.70
59973;DHT22;55298;-36.624;-64.282;2023-11-19T11:16:44;29.20;25.30
59973;DHT22;55298;-36.624;-64.282;2023-11-19T11:19:15;29.10;24.60
59973;DHT22;55298;-36.624;-64.282;2023-11-19T11:21:47;29.10;25.30
59973;DHT22;55298;-36.624;-64.282;2023-11-19T11:27:16;29.20;24.10
59973;DHT22;55298;-36.624;-64.282;2023-11-19T11:30:20;29.50;22.70
59973;DHT22;55298;-36.624;-64.282;2023-11-19T11:36:05;29.90;23.60
59973;DHT22;55298;-36.624;-64.282;2023-11-19T11:38:37;30.20;22.60
59973;DHT22;55298;-36.624;-64.282;2023-11-19T11:41:20;29.90;23.60
59973;DHT22;55298;-36.624;-64.282;2023-11-19T11:43:52;29.40;23.40
59973;DHT22;55298;-36.624;-64.282;2023-11-19T11:49:25;28.80;23.40
59973;DHT22;55298;-36.624;-64.282;2023-11-19T11:52:00;28.20;23.70
59973;DHT22;55298;-36.624;-64.282;2023-11-19T11:54:30;27.70;24.70
59973;DHT22;55298;-36.624;-64.282;2023-11-19T11:57:08;27.50;25.10
59973;DHT22;55298;-36.624;-64.282;2023-11-19T11:59:47;27.40;25.00
59973;DHT22;55298;-36.624;-64.282;2023-11-19T12:02:18;27.20;25.10
59973;DHT22;55298;-36.624;-64.282;2023-11-19T12:04:50;27.60;25.60
59973;DHT22;55298;-36.624;-64.282;2023-11-19T12:07:21;28.10;25.80
59973;DHT22;55298;-36.624;-64.282;2023-11-19T12:09:53;28.80;24.70
59973;DHT22;55298;-36.624;-64.282;2023-11-19T12:12:30;29.60;23.40
59973;DHT22;55298;-36.624;-64.282;2023-11-19T12:15:06;29.50;22.80
59973;DHT22;55298;-36.624;-64.282;2023-11-19T12:17:40;29.70;22.40
59973;DHT22;55298;-36.624;-64.282;2023-11-19T12:20:11;29.70;22.60
59973;DHT22;55298;-36.624;-64.282;2023-11-19T12:22:41;30.10;23.90
59973;DHT22;55298;-36.624;-64.282;2023-11-19T12:25:13;30.40;22.70
59973;DHT22;55298;-36.624;-64.282;2023-11-19T12:27:43;30.70;21.40
59973;DHT22;55298;-36.624;-64.282;2023-11-19T12:30:11;31.40;21.80
59973;DHT22;55298;-36.624;-64.282;2023-11-19T12:32:41;32.00;20.40
59973;DHT22;55298;-36.624;-64.282;2023-11-19T12:35:18;32.50;20.50
59973;DHT22;55298;-36.624;-64.282;2023-11-19T12:37:48;33.00;19.00
59973;DHT22;55298;-36.624;-64.282;2023-11-19T12:40:21;33.80;19.40
59973;DHT22;55298;-36.624;-64.282;2023-11-19T12:42:50;34.20;19.50
59973;DHT22;55298;-36.624;-64.282;2023-11-19T12:45:18;34.40;18.80
59973;DHT22;55298;-36.624;-64.282;2023-11-19T12:47:47;34.80;18.60
59973;DHT22;55298;-36.624;-64.282;2023-11-19T12:50:17;34.60;17.50
59973;DHT22;55298;-36.624;-64.282;2023-11-19T12:52:57;34.10;17.30
59973;DHT22;55298;-36.624;-64.282;2023-11-19T12:55:29;34.10;18.00
59973;DHT22;55298;-36.624;-64.282;2023-11-19T12:57:59;33.90;18.60
59973;DHT22;55298;-36.624;-64.282;2023-11-19T13:00:27;33.70;18.00
59973;DHT22;55298;-36.624;-64.282;2023-11-19T13:02:57;33.40;18.30
59973;DHT22;55298;-36.624;-64.282;2023-11-19T13:05:29;33.40;19.10
59973;DHT22;55298;-36.624;-64.282;2023-11-19T13:08:04;33.90;19.00
59973;DHT22;55298;-36.624;-64.282;2023-11-19T13:10:49;34.40;18.50
59973;DHT22;55298;-36.624;-64.282;2023-11-19T13:13:17;34.80;17.90
59973;DHT22;55298;-36.624;-64.282;2023-11-19T13:15:45;35.00;18.70
59973;DHT22;55298;-36.624;-64.282;2023-11-19T13:18:16;35.20;17.40
59973;DHT22;55298;-36.624;-64.282;2023-11-19T13:20:44;35.30;18.30
59973;DHT22;55298;-36.624;-64.282;2023-11-19T13:23:11;35.40;17.20
59973;DHT22;55298;-36.624;-64.282;2023-11-19T13:25:41;35.20;17.10
59973;DHT22;55298;-36.624;-64.282;2023-11-19T13:28:10;34.70;17.70
59973;DHT22;55298;-36.624;-64.282;2023-11-19T13:30:38;34.70;18.10
59973;DHT22;55298;-36.624;-64.282;2023-11-19T13:33:05;34.80;17.90
59973;DHT22;55298;-36.624;-64.282;2023-11-19T13:35:33;34.90;17.40
59973;DHT22;55298;-36.624;-64.282;2023-11-19T13:38:02;34.60;17.50
59973;DHT22;55298;-36.624;-64.282;2023-11-19T13:40:30;34.60;17.20
59973;DHT22;55298;-36.624;-64.282;2023-11-19T13:42:59;34.80;17.60
59973;DHT22;55298;-36.624;-64.282;2023-11-19T13:45:27;34.50;17.90
59973;DHT22;55298;-36.624;-64.282;2023-11-19T13:47:54;34.30;17.80
59973;DHT22;55298;-36.624;-64.282;2023-11-19T13:50:22;34.20;17.80
59973;DHT22;55298;-36.624;-64.282;2023-11-19T13:52:50;34.30;17.80
59973;DHT22;55298;-36.624;-64.282;2023-11-19T13:55:17;34.40;18.20
59973;DHT22;55298;-36.624;-64.282;2023-11-19T13:57:45;34.70;18.40
59973;DHT22;55298;-36.624;-64.282;2023-11-19T14:00:15;35.10;18.20
59973;DHT22;55298;-36.624;-64.282;2023-11-19T14:02:47;35.50;17.40
59973;DHT22;55298;-36.624;-64.282;2023-11-19T14:05:15;35.40;17.00
59973;DHT22;55298;-36.624;-64.282;2023-11-19T14:07:45;35.50;15.80
59973;DHT22;55298;-36.624;-64.282;2023-11-19T14:10:15;35.50;16.00
59973;DHT22;55298;-36.624;-64.282;2023-11-19T14:12:43;35.40;16.60
59973;DHT22;55298;-36.624;-64.282;2023-11-19T14:15:12;35.40;17.50
59973;DHT22;55298;-36.624;-64.282;2023-11-19T14:17:40;35.20;17.50
59973;DHT22;55298;-36.624;-64.282;2023-11-19T14:20:08;34.40;16.50
59973;DHT22;55298;-36.624;-64.282;2023-11-19T14:22:45;34.20;17.40
59973;DHT22;55298;-36.624;-64.282;2023-11-19T14:25:16;34.00;17.50
59973;DHT22;55298;-36.624;-64.282;2023-11-19T14:27:45;33.90;17.60
59973;DHT22;55298;-36.624;-64.282;2023-11-19T14:30:14;33.50;17.60
59973;DHT22;55298;-36.624;-64.282;2023-11-19T14:32:43;33.50;18.50
59973;DHT22;55298;-36.624;-64.282;2023-11-19T14:35:12;33.70;18.50
59973;DHT22;55298;-36.624;-64.282;2023-11-19T14:37:40;33.70;16.70
59973;DHT22;55298;-36.624;-64.282;2023-11-19T14:40:10;33.50;17.90
59973;DHT22;55298;-36.624;-64.282;2023-11-19T14:42:38;33.10;18.00
59973;DHT22;55298;-36.624;-64.282;2023-11-19T14:45:07;32.60;18.40
59973;DHT22;55298;-36.624;-64.282;2023-11-19T14:47:38;32.50;18.70
59973;DHT22;55298;-36.624;-64.282;2023-11-19T14:50:07;32.20;18.30
59973;DHT22;55298;-36.624;-64.282;2023-11-19T14:52:36;31.90;18.40
59973;DHT22;55298;-36.624;-64.282;2023-11-19T14:55:04;32.00;18.90
59973;DHT22;55298;-36.624;-64.282;2023-11-19T14:57:32;32.10;19.20
59973;DHT22;55298;-36.624;-64.282;2023-11-19T14:59:59;32.20;19.60
59973;DHT22;55298;-36.624;-64.282;2023-11-19T15:02:27;32.40;18.90
59973;DHT22;55298;-36.624;-64.282;2023-11-19T15:04:56;32.50;18.60
59973;DHT22;55298;-36.624;-64.282;2023-11-19T15:07:25;32.60;18.30